sensor_id;sensor_type;location;lat;lon;timestamp;temperature;humidity
34891;DHT22;21103;51.358;12.412;2022-08-03T00:01:16;20.50;96.50
34891;DHT22;21103;51.358;12.412;2022-08-03T00:03:41;20.50;96.50
34891;DHT22;21103;51.358;12.412;2022-08-03T00:06:07;20.50;96.60
34891;DHT22;21103;51.358;12.412;2022-08-03T00:08:33;20.50;96.70
34891;DHT22;21103;51.358;12.412;2022-08-03T00:10:58;20.40;96.80
34891;DHT22;21103;51.358;12.412;2022-08-03T00:13:24;20.40;96.90
34891;DHT22;21103;51.358;12.412;2022-08-03T00:15:50;20.40;96.90
34891;DHT22;21103;51.358;12.412;2022-08-03T00:18:15;20.40;97.00
34891;DHT22;21103;51.358;12.412;2022-08-03T00:20:41;20.40;97.00
34891;DHT22;21103;51.358;12.412;2022-08-03T00:23:07;20.30;97.10
34891;DHT22;21103;51.358;12.412;2022-08-03T00:25:35;20.30;97.10
34891;DHT22;21103;51.358;12.412;2022-08-03T00:28:02;20.30;97.10
34891;DHT22;21103;51.358;12.412;2022-08-03T00:30:27;20.30;97.20
34891;DHT22;21103;51.358;12.412;2022-08-03T00:32:53;20.30;97.20
34891;DHT22;21103;51.358;12.412;2022-08-03T00:35:19;20.30;97.30
34891;DHT22;21103;51.358;12.412;2022-08-03T00:37:44;20.30;97.40
34891;DHT22;21103;51.358;12.412;2022-08-03T00:40:14;20.30;97.40
34891;DHT22;21103;51.358;12.412;2022-08-03T00:42:57;20.30;97.40
34891;DHT22;21103;51.358;12.412;2022-08-03T00:45:25;20.30;97.50
34891;DHT22;21103;51.358;12.412;2022-08-03T00:47:52;20.20;97.60
34891;DHT22;21103;51.358;12.412;2022-08-03T00:50:19;20.20;97.70
34891;DHT22;21103;51.358;12.412;2022-08-03T00:52:45;20.20;97.70
34891;DHT22;21103;51.358;12.412;2022-08-03T00:55:11;20.20;97.70
34891;DHT22;21103;51.358;12.412;2022-08-03T00:57:37;20.10;97.70
34891;DHT22;21103;51.358;12.412;2022-08-03T01:00:05;20.10;97.80
34891;DHT22;21103;51.358;12.412;2022-08-03T01:02:31;20.10;97.90
34891;DHT22;21103;51.358;12.412;2022-08-03T01:04:57;20.10;97.90
34891;DHT22;21103;51.358;12.412;2022-08-03T01:07:26;20.10;98.00
34891;DHT22;21103;51.358;12.412;2022-08-03T01:10:14;20.00;98.00
34891;DHT22;21103;51.358;12.412;2022-08-03T01:12:55;20.00;98.00
34891;DHT22;21103;51.358;12.412;2022-08-03T01:15:40;20.00;98.10
34891;DHT22;21103;51.358;12.412;2022-08-03T01:18:13;20.00;98.20
34891;DHT22;21103;51.358;12.412;2022-08-03T01:20:44;19.90;98.20
34891;DHT22;21103;51.358;12.412;2022-08-03T01:23:33;19.90;98.20
34891;DHT22;21103;51.358;12.412;2022-08-03T01:26:11;19.90;98.20
34891;DHT22;21103;51.358;12.412;2022-08-03T01:31:15;19.90;98.40
34891;DHT22;21103;51.358;12.412;2022-08-03T01:33:53;19.90;98.40
34891;DHT22;21103;51.358;12.412;2022-08-03T01:36:24;19.80;98.50
34891;DHT22;21103;51.358;12.412;2022-08-03T01:38:55;19.80;98.60
34891;DHT22;21103;51.358;12.412;2022-08-03T01:41:32;19.80;98.70
34891;DHT22;21103;51.358;12.412;2022-08-03T01:44:00;19.80;98.90
34891;DHT22;21103;51.358;12.412;2022-08-03T01:46:27;19.70;98.70
34891;DHT22;21103;51.358;12.412;2022-08-03T01:48:54;19.70;98.70
34891;DHT22;21103;51.358;12.412;2022-08-03T01:51:21;19.70;98.80
34891;DHT22;21103;51.358;12.412;2022-08-03T01:53:48;19.70;98.80
34891;DHT22;21103;51.358;12.412;2022-08-03T01:56:16;19.70;98.90
34891;DHT22;21103;51.358;12.412;2022-08-03T01:58:42;19.70;98.90
34891;DHT22;21103;51.358;12.412;2022-08-03T02:01:09;19.70;98.90
34891;DHT22;21103;51.358;12.412;2022-08-03T02:03:37;19.60;99.00
34891;DHT22;21103;51.358;12.412;2022-08-03T02:06:04;19.60;99.00
34891;DHT22;21103;51.358;12.412;2022-08-03T02:08:31;19.60;99.10
34891;DHT22;21103;51.358;12.412;2022-08-03T02:10:58;19.60;99.10
34891;DHT22;21103;51.358;12.412;2022-08-03T02:13:25;19.50;99.10
34891;DHT22;21103;51.358;12.412;2022-08-03T02:15:52;19.50;99.20
34891;DHT22;21103;51.358;12.412;2022-08-03T02:18:19;19.50;99.20
34891;DHT22;21103;51.358;12.412;2022-08-03T02:20:46;19.50;99.20
34891;DHT22;21103;51.358;12.412;2022-08-03T02:23:14;19.40;99.30
34891;DHT22;21103;51.358;12.412;2022-08-03T02:25:45;19.40;99.30
34891;DHT22;21103;51.358;12.412;2022-08-03T02:28:17;19.40;99.30
34891;DHT22;21103;51.358;12.412;2022-08-03T02:30:46;19.40;99.40
34891;DHT22;21103;51.358;12.412;2022-08-03T02:33:18;19.40;99.40
34891;DHT22;21103;51.358;12.412;2022-08-03T02:35:47;19.40;99.50
34891;DHT22;21103;51.358;12.412;2022-08-03T02:38:14;19.30;99.50
34891;DHT22;21103;51.358;12.412;2022-08-03T02:40:42;19.30;99.50
34891;DHT22;21103;51.358;12.412;2022-08-03T02:43:11;19.30;99.50
34891;DHT22;21103;51.358;12.412;2022-08-03T02:45:43;19.30;99.60
34891;DHT22;21103;51.358;12.412;2022-08-03T02:48:10;19.30;99.60
34891;DHT22;21103;51.358;12.412;2022-08-03T02:50:36;19.30;99.70
34891;DHT22;21103;51.358;12.412;2022-08-03T02:53:02;19.30;99.70
34891;DHT22;21103;51.358;12.412;2022-08-03T02:55:29;19.20;99.70
34891;DHT22;21103;51.358;12.412;2022-08-03T02:57:56;19.20;99.80
34891;DHT22;21103;51.358;12.412;2022-08-03T03:00:22;19.20;99.90
34891;DHT22;21103;51.358;12.412;2022-08-03T03:02:48;19.20;99.90
34891;DHT22;21103;51.358;12.412;2022-08-03T03:05:15;19.20;99.90
34891;DHT22;21103;51.358;12.412;2022-08-03T03:07:41;19.20;99.90
34891;DHT22;21103;51.358;12.412;2022-08-03T03:10:08;19.20;99.90
34891;DHT22;21103;51.358;12.412;2022-08-03T03:12:36;19.20;99.90
34891;DHT22;21103;51.358;12.412;2022-08-03T03:15:04;19.20;99.90
34891;DHT22;21103;51.358;12.412;2022-08-03T03:17:32;19.20;99.90
34891;DHT22;21103;51.358;12.412;2022-08-03T03:19:58;19.10;99.90
34891;DHT22;21103;51.358;12.412;2022-08-03T03:22:26;19.10;99.90
34891;DHT22;21103;51.358;12.412;2022-08-03T03:24:51;19.10;99.90
34891;DHT22;21103;51.358;12.412;2022-08-03T03:27:19;19.10;99.90
34891;DHT22;21103;51.358;12.412;2022-08-03T03:29:45;19.10;99.90
34891;DHT22;21103;51.358;12.412;2022-08-03T03:32:10;19.10;99.90
34891;DHT22;21103;51.358;12.412;2022-08-03T03:34:36;19.10;99.90
34891;DHT22;21103;51.358;12.412;2022-08-03T03:37:02;19.10;99.90
34891;DHT22;21103;51.358;12.412;2022-08-03T03:39:27;19.00;99.90
34891;DHT22;21103;51.358;12.412;2022-08-03T03:41:53;19.00;99.90
34891;DHT22;21103;51.358;12.412;2022-08-03T03:44:19;19.00;99.90
34891;DHT22;21103;51.358;12.412;2022-08-03T03:46:44;19.00;99.90
34891;DHT22;21103;51.358;12.412;2022-08-03T03:49:10;19.00;99.90
34891;DHT22;21103;51.358;12.412;2022-08-03T03:51:35;19.00;99.90
34891;DHT22;21103;51.358;12.412;2022-08-03T03:54:02;19.00;99.90
34891;DHT22;21103;51.358;12.412;2022-08-03T03:56:30;18.90;99.90
34891;DHT22;21103;51.358;12.412;2022-08-03T03:58:55;19.00;99.90
34891;DHT22;21103;51.358;12.412;2022-08-03T04:01:21;19.00;99.90
34891;DHT22;21103;51.358;12.412;2022-08-03T04:03:47;19.00;99.90
34891;DHT22;21103;51.358;12.412;2022-08-03T04:06:13;19.00;99.90
34891;DHT22;21103;51.358;12.412;2022-08-03T04:08:57;19.00;99.90
34891;DHT22;21103;51.358;12.412;2022-08-03T04:11:48;18.90;99.90
34891;DHT22;21103;51.358;12.412;2022-08-03T04:14:34;19.00;99.90
34891;DHT22;21103;51.358;12.412;2022-08-03T04:17:05;19.00;99.90
34891;DHT22;21103;51.358;12.412;2022-08-03T04:19:35;19.00;99.90
34891;DHT22;21103;51.358;12.412;2022-08-03T04:22:08;19.00;99.90
34891;DHT22;21103;51.358;12.412;2022-08-03T04:24:40;19.00;99.90
34891;DHT22;21103;51.358;12.412;2022-08-03T04:27:08;19.00;99.90
34891;DHT22;21103;51.358;12.412;2022-08-03T04:29:38;19.00;99.90
34891;DHT22;21103;51.358;12.412;2022-08-03T04:32:06;19.00;99.90
34891;DHT22;21103;51.358;12.412;2022-08-03T04:34:32;19.00;99.90
34891;DHT22;21103;51.358;12.412;2022-08-03T04:37:01;19.10;99.90
34891;DHT22;21103;51.358;12.412;2022-08-03T04:39:30;19.10;99.90
34891;DHT22;21103;51.358;12.412;2022-08-03T04:41:59;19.10;99.90
34891;DHT22;21103;51.358;12.412;2022-08-03T04:44:26;19.20;99.90
34891;DHT22;21103;51.358;12.412;2022-08-03T04:46:52;19.20;99.90
34891;DHT22;21103;51.358;12.412;2022-08-03T04:49:19;19.20;99.90
34891;DHT22;21103;51.358;12.412;2022-08-03T04:51:47;19.30;99.90
34891;DHT22;21103;51.358;12.412;2022-08-03T04:54:13;19.30;99.90
34891;DHT22;21103;51.358;12.412;2022-08-03T04:56:40;19.40;99.90
34891;DHT22;21103;51.358;12.412;2022-08-03T04:59:07;19.40;99.90
34891;DHT22;21103;51.358;12.412;2022-08-03T05:01:33;19.40;99.90
34891;DHT22;21103;51.358;12.412;2022-08-03T05:03:58;19.40;99.90
34891;DHT22;21103;51.358;12.412;2022-08-03T05:06:24;19.50;99.90
34891;DHT22;21103;51.358;12.412;2022-08-03T05:08:50;19.50;99.90
34891;DHT22;21103;51.358;12.412;2022-08-03T05:11:16;19.60;99.90
34891;DHT22;21103;51.358;12.412;2022-08-03T05:13:42;19.60;99.90
34891;DHT22;21103;51.358;12.412;2022-08-03T05:16:08;19.70;99.90
34891;DHT22;21103;51.358;12.412;2022-08-03T05:18:33;19.70;99.90
34891;DHT22;21103;51.358;12.412;2022-08-03T05:21:00;19.80;99.80
34891;DHT22;21103;51.358;12.412;2022-08-03T05:23:26;19.90;99.50
34891;DHT22;21103;51.358;12.412;2022-08-03T05:25:51;19.90;99.30
34891;DHT22;21103;51.358;12.412;2022-08-03T05:28:17;20.00;98.70
34891;DHT22;21103;51.358;12.412;2022-08-03T05:30:42;20.10;98.60
34891;DHT22;21103;51.358;12.412;2022-08-03T05:33:08;20.20;98.50
34891;DHT22;21103;51.358;12.412;2022-08-03T05:35:33;20.30;98.30
34891;DHT22;21103;51.358;12.412;2022-08-03T05:38:01;20.40;98.00
34891;DHT22;21103;51.358;12.412;2022-08-03T05:40:27;20.50;97.80
34891;DHT22;21103;51.358;12.412;2022-08-03T05:42:52;20.60;97.30
34891;DHT22;21103;51.358;12.412;2022-08-03T05:45:18;20.60;97.20
34891;DHT22;21103;51.358;12.412;2022-08-03T05:47:44;20.70;96.00
34891;DHT22;21103;51.358;12.412;2022-08-03T05:50:11;20.80;95.60
34891;DHT22;21103;51.358;12.412;2022-08-03T05:52:37;20.90;95.50
34891;DHT22;21103;51.358;12.412;2022-08-03T05:55:05;21.00;94.80
34891;DHT22;21103;51.358;12.412;2022-08-03T05:57:30;21.10;94.70
34891;DHT22;21103;51.358;12.412;2022-08-03T05:59:56;21.30;94.40
34891;DHT22;21103;51.358;12.412;2022-08-03T06:02:21;21.40;94.20
34891;DHT22;21103;51.358;12.412;2022-08-03T06:04:47;21.50;93.30
34891;DHT22;21103;51.358;12.412;2022-08-03T06:07:12;21.60;93.10
34891;DHT22;21103;51.358;12.412;2022-08-03T06:09:38;21.70;93.00
34891;DHT22;21103;51.358;12.412;2022-08-03T06:12:06;21.90;93.10
34891;DHT22;21103;51.358;12.412;2022-08-03T06:14:31;22.00;92.60
34891;DHT22;21103;51.358;12.412;2022-08-03T06:16:56;22.10;92.80
34891;DHT22;21103;51.358;12.412;2022-08-03T06:19:22;22.20;92.50
34891;DHT22;21103;51.358;12.412;2022-08-03T06:21:48;22.30;92.30
34891;DHT22;21103;51.358;12.412;2022-08-03T06:24:14;22.30;92.00
34891;DHT22;21103;51.358;12.412;2022-08-03T06:26:40;22.40;91.60
34891;DHT22;21103;51.358;12.412;2022-08-03T06:29:06;22.50;90.90
34891;DHT22;21103;51.358;12.412;2022-08-03T06:31:31;22.60;90.80
34891;DHT22;21103;51.358;12.412;2022-08-03T06:33:57;22.70;90.40
34891;DHT22;21103;51.358;12.412;2022-08-03T06:36:22;22.80;90.30
34891;DHT22;21103;51.358;12.412;2022-08-03T06:38:50;22.90;90.40
34891;DHT22;21103;51.358;12.412;2022-08-03T06:41:15;23.00;90.10
34891;DHT22;21103;51.358;12.412;2022-08-03T06:43:41;23.10;89.60
34891;DHT22;21103;51.358;12.412;2022-08-03T06:46:06;23.20;89.80
34891;DHT22;21103;51.358;12.412;2022-08-03T06:48:32;23.30;90.20
34891;DHT22;21103;51.358;12.412;2022-08-03T06:50:57;23.40;89.60
34891;DHT22;21103;51.358;12.412;2022-08-03T06:53:23;23.40;88.70
34891;DHT22;21103;51.358;12.412;2022-08-03T06:55:50;23.50;88.60
34891;DHT22;21103;51.358;12.412;2022-08-03T06:58:15;23.60;88.60
34891;DHT22;21103;51.358;12.412;2022-08-03T07:00:41;23.70;87.60
34891;DHT22;21103;51.358;12.412;2022-08-03T07:03:06;23.80;87.60
34891;DHT22;21103;51.358;12.412;2022-08-03T07:05:32;23.90;86.50
34891;DHT22;21103;51.358;12.412;2022-08-03T07:07:59;24.00;86.40
34891;DHT22;21103;51.358;12.412;2022-08-03T07:10:26;24.10;86.30
34891;DHT22;21103;51.358;12.412;2022-08-03T07:12:52;24.20;86.20
34891;DHT22;21103;51.358;12.412;2022-08-03T07:15:18;24.30;85.90
34891;DHT22;21103;51.358;12.412;2022-08-03T07:17:44;24.40;86.10
34891;DHT22;21103;51.358;12.412;2022-08-03T07:20:10;24.50;85.60
34891;DHT22;21103;51.358;12.412;2022-08-03T07:22:35;24.70;84.90
34891;DHT22;21103;51.358;12.412;2022-08-03T07:25:01;24.80;85.80
34891;DHT22;21103;51.358;12.412;2022-08-03T07:27:27;24.90;85.80
34891;DHT22;21103;51.358;12.412;2022-08-03T07:29:54;25.00;85.00
34891;DHT22;21103;51.358;12.412;2022-08-03T07:32:19;25.20;84.80
34891;DHT22;21103;51.358;12.412;2022-08-03T07:34:45;25.40;85.90
34891;DHT22;21103;51.358;12.412;2022-08-03T07:37:10;25.50;83.50
34891;DHT22;21103;51.358;12.412;2022-08-03T07:39:36;25.70;83.10
34891;DHT22;21103;51.358;12.412;2022-08-03T07:42:01;25.90;83.10
34891;DHT22;21103;51.358;12.412;2022-08-03T07:44:27;26.00;82.10
34891;DHT22;21103;51.358;12.412;2022-08-03T07:46:52;26.20;82.50
34891;DHT22;21103;51.358;12.412;2022-08-03T07:49:18;26.40;81.80
34891;DHT22;21103;51.358;12.412;2022-08-03T07:51:43;26.50;81.80
34891;DHT22;21103;51.358;12.412;2022-08-03T07:54:09;26.70;81.70
34891;DHT22;21103;51.358;12.412;2022-08-03T07:56:35;26.90;81.00
34891;DHT22;21103;51.358;12.412;2022-08-03T07:59:01;27.10;80.80
34891;DHT22;21103;51.358;12.412;2022-08-03T08:01:27;27.30;81.40
34891;DHT22;21103;51.358;12.412;2022-08-03T08:03:53;27.50;80.50
34891;DHT22;21103;51.358;12.412;2022-08-03T08:06:19;27.60;79.10
34891;DHT22;21103;51.358;12.412;2022-08-03T08:08:45;27.70;77.00
34891;DHT22;21103;51.358;12.412;2022-08-03T08:11:10;27.90;76.70
34891;DHT22;21103;51.358;12.412;2022-08-03T08:13:36;28.00;76.30
34891;DHT22;21103;51.358;12.412;2022-08-03T08:16:05;28.20;76.00
34891;DHT22;21103;51.358;12.412;2022-08-03T08:18:30;28.30;73.80
34891;DHT22;21103;51.358;12.412;2022-08-03T08:20:56;28.40;74.40
34891;DHT22;21103;51.358;12.412;2022-08-03T08:23:22;28.50;74.70
34891;DHT22;21103;51.358;12.412;2022-08-03T08:25:48;28.70;72.30
34891;DHT22;21103;51.358;12.412;2022-08-03T08:28:17;28.80;71.80
34891;DHT22;21103;51.358;12.412;2022-08-03T08:30:42;28.90;69.50
34891;DHT22;21103;51.358;12.412;2022-08-03T08:33:08;29.10;69.90
34891;DHT22;21103;51.358;12.412;2022-08-03T08:35:33;29.10;71.20
34891;DHT22;21103;51.358;12.412;2022-08-03T08:37:59;29.30;70.30
34891;DHT22;21103;51.358;12.412;2022-08-03T08:40:26;29.40;70.40
34891;DHT22;21103;51.358;12.412;2022-08-03T08:42:52;29.60;69.60
34891;DHT22;21103;51.358;12.412;2022-08-03T08:45:18;29.70;68.30
34891;DHT22;21103;51.358;12.412;2022-08-03T08:47:46;29.90;70.00
34891;DHT22;21103;51.358;12.412;2022-08-03T08:50:12;30.00;68.50
34891;DHT22;21103;51.358;12.412;2022-08-03T08:52:40;30.20;64.80
34891;DHT22;21103;51.358;12.412;2022-08-03T08:55:09;30.30;64.10
34891;DHT22;21103;51.358;12.412;2022-08-03T08:57:43;30.40;64.70
34891;DHT22;21103;51.358;12.412;2022-08-03T09:00:10;30.50;65.40
34891;DHT22;21103;51.358;12.412;2022-08-03T09:02:40;30.50;63.90
34891;DHT22;21103;51.358;12.412;2022-08-03T09:05:17;30.60;63.70
34891;DHT22;21103;51.358;12.412;2022-08-03T09:07:44;30.80;66.60
34891;DHT22;21103;51.358;12.412;2022-08-03T09:10:12;30.90;63.90
34891;DHT22;21103;51.358;12.412;2022-08-03T09:12:42;30.90;61.40
34891;DHT22;21103;51.358;12.412;2022-08-03T09:15:26;31.00;62.00
34891;DHT22;21103;51.358;12.412;2022-08-03T09:17:53;31.10;63.80
34891;DHT22;21103;51.358;12.412;2022-08-03T09:20:21;31.20;64.10
34891;DHT22;21103;51.358;12.412;2022-08-03T09:22:53;31.40;60.90
34891;DHT22;21103;51.358;12.412;2022-08-03T09:25:21;31.50;60.20
34891;DHT22;21103;51.358;12.412;2022-08-03T09:27:50;31.70;59.60
34891;DHT22;21103;51.358;12.412;2022-08-03T09:30:17;31.70;59.20
34891;DHT22;21103;51.358;12.412;2022-08-03T09:32:43;31.80;58.50
34891;DHT22;21103;51.358;12.412;2022-08-03T09:35:11;31.90;59.50
34891;DHT22;21103;51.358;12.412;2022-08-03T09:37:36;31.90;57.60
34891;DHT22;21103;51.358;12.412;2022-08-03T09:40:03;31.90;58.10
34891;DHT22;21103;51.358;12.412;2022-08-03T09:42:29;32.00;57.50
34891;DHT22;21103;51.358;12.412;2022-08-03T09:44:54;32.00;57.50
34891;DHT22;21103;51.358;12.412;2022-08-03T09:47:30;32.00;55.60
34891;DHT22;21103;51.358;12.412;2022-08-03T09:50:00;32.10;57.30
34891;DHT22;21103;51.358;12.412;2022-08-03T09:52:35;32.20;56.90
34891;DHT22;21103;51.358;12.412;2022-08-03T09:55:06;32.40;56.00
34891;DHT22;21103;51.358;12.412;2022-08-03T09:57:32;32.50;55.40
34891;DHT22;21103;51.358;12.412;2022-08-03T10:00:10;32.70;55.20
34891;DHT22;21103;51.358;12.412;2022-08-03T10:02:38;32.80;55.00
34891;DHT22;21103;51.358;12.412;2022-08-03T10:05:05;32.90;54.30
34891;DHT22;21103;51.358;12.412;2022-08-03T10:07:41;32.90;53.40
34891;DHT22;21103;51.358;12.412;2022-08-03T10:10:08;33.10;53.70
34891;DHT22;21103;51.358;12.412;2022-08-03T10:12:34;33.10;53.40
34891;DHT22;21103;51.358;12.412;2022-08-03T10:15:01;33.10;53.70
34891;DHT22;21103;51.358;12.412;2022-08-03T10:17:27;33.20;53.70
34891;DHT22;21103;51.358;12.412;2022-08-03T10:19:53;33.30;55.20
34891;DHT22;21103;51.358;12.412;2022-08-03T10:22:21;33.40;52.30
34891;DHT22;21103;51.358;12.412;2022-08-03T10:25:08;33.30;52.10
34891;DHT22;21103;51.358;12.412;2022-08-03T10:27:40;33.30;53.60
34891;DHT22;21103;51.358;12.412;2022-08-03T10:30:10;33.30;51.90
34891;DHT22;21103;51.358;12.412;2022-08-03T10:32:43;33.40;54.30
34891;DHT22;21103;51.358;12.412;2022-08-03T10:35:15;33.40;53.70
34891;DHT22;21103;51.358;12.412;2022-08-03T10:37:55;33.60;54.50
34891;DHT22;21103;51.358;12.412;2022-08-03T10:40:22;33.70;52.50
34891;DHT22;21103;51.358;12.412;2022-08-03T10:42:53;33.90;52.30
34891;DHT22;21103;51.358;12.412;2022-08-03T10:45:23;33.90;51.50
34891;DHT22;21103;51.358;12.412;2022-08-03T10:47:50;34.00;52.50
34891;DHT22;21103;51.358;12.412;2022-08-03T10:50:17;34.00;52.40
34891;DHT22;21103;51.358;12.412;2022-08-03T10:52:55;34.10;53.30
34891;DHT22;21103;51.358;12.412;2022-08-03T10:55:35;34.20;54.90
34891;DHT22;21103;51.358;12.412;2022-08-03T11:01:07;34.40;52.70
34891;DHT22;21103;51.358;12.412;2022-08-03T11:03:33;34.60;52.20
34891;DHT22;21103;51.358;12.412;2022-08-03T11:06:22;34.70;51.20
34891;DHT22;21103;51.358;12.412;2022-08-03T11:09:12;34.80;49.60
34891;DHT22;21103;51.358;12.412;2022-08-03T11:11:36;34.90;50.20
34891;DHT22;21103;51.358;12.412;2022-08-03T11:14:07;34.80;49.70
34891;DHT22;21103;51.358;12.412;2022-08-03T11:19:04;34.80;49.70
34891;DHT22;21103;51.358;12.412;2022-08-03T11:27:29;34.80;52.50
34891;DHT22;21103;51.358;12.412;2022-08-03T11:30:22;34.90;52.30
34891;DHT22;21103;51.358;12.412;2022-08-03T11:32:52;35.00;49.50
34891;DHT22;21103;51.358;12.412;2022-08-03T11:35:24;34.90;48.90
34891;DHT22;21103;51.358;12.412;2022-08-03T11:40:41;34.80;48.80
34891;DHT22;21103;51.358;12.412;2022-08-03T11:46:09;34.90;50.50
34891;DHT22;21103;51.358;12.412;2022-08-03T11:48:48;35.20;53.10
34891;DHT22;21103;51.358;12.412;2022-08-03T11:51:28;35.40;49.50
34891;DHT22;21103;51.358;12.412;2022-08-03T11:53:59;35.50;51.20
34891;DHT22;21103;51.358;12.412;2022-08-03T11:56:25;35.60;48.40
34891;DHT22;21103;51.358;12.412;2022-08-03T11:58:54;35.70;48.70
34891;DHT22;21103;51.358;12.412;2022-08-03T12:01:21;35.70;47.90
34891;DHT22;21103;51.358;12.412;2022-08-03T12:03:47;35.70;47.70
34891;DHT22;21103;51.358;12.412;2022-08-03T12:06:14;35.70;47.30
34891;DHT22;21103;51.358;12.412;2022-08-03T12:08:41;35.50;47.00
34891;DHT22;21103;51.358;12.412;2022-08-03T12:11:09;35.50;47.90
34891;DHT22;21103;51.358;12.412;2022-08-03T12:13:46;35.50;48.20
34891;DHT22;21103;51.358;12.412;2022-08-03T12:16:22;35.40;47.60
34891;DHT22;21103;51.358;12.412;2022-08-03T12:18:56;35.50;48.50
34891;DHT22;21103;51.358;12.412;2022-08-03T12:21:22;35.50;48.30
34891;DHT22;21103;51.358;12.412;2022-08-03T12:23:49;35.50;49.00
34891;DHT22;21103;51.358;12.412;2022-08-03T12:26:14;35.60;47.80
34891;DHT22;21103;51.358;12.412;2022-08-03T12:28:46;35.70;48.90
34891;DHT22;21103;51.358;12.412;2022-08-03T12:31:12;35.90;49.90
34891;DHT22;21103;51.358;12.412;2022-08-03T12:34:03;35.90;47.30
34891;DHT22;21103;51.358;12.412;2022-08-03T12:36:31;35.90;47.70
34891;DHT22;21103;51.358;12.412;2022-08-03T12:38:59;35.90;47.00
34891;DHT22;21103;51.358;12.412;2022-08-03T12:41:30;36.00;48.00
34891;DHT22;21103;51.358;12.412;2022-08-03T12:43:56;36.10;46.90
34891;DHT22;21103;51.358;12.412;2022-08-03T12:46:22;36.10;45.30
34891;DHT22;21103;51.358;12.412;2022-08-03T12:51:27;35.90;45.30
34891;DHT22;21103;51.358;12.412;2022-08-03T12:53:53;35.80;45.20
34891;DHT22;21103;51.358;12.412;2022-08-03T12:56:19;35.80;45.00
34891;DHT22;21103;51.358;12.412;2022-08-03T12:58:45;35.70;45.10
34891;DHT22;21103;51.358;12.412;2022-08-03T13:01:12;35.80;46.30
34891;DHT22;21103;51.358;12.412;2022-08-03T13:03:42;35.90;45.40
34891;DHT22;21103;51.358;12.412;2022-08-03T13:06:12;35.80;46.80
34891;DHT22;21103;51.358;12.412;2022-08-03T13:08:38;36.10;46.80
34891;DHT22;21103;51.358;12.412;2022-08-03T13:11:21;36.20;43.50
34891;DHT22;21103;51.358;12.412;2022-08-03T13:13:48;36.40;44.10
34891;DHT22;21103;51.358;12.412;2022-08-03T13:16:14;36.70;44.90
34891;DHT22;21103;51.358;12.412;2022-08-03T13:18:39;36.90;48.70
34891;DHT22;21103;51.358;12.412;2022-08-03T13:21:05;37.00;47.50
34891;DHT22;21103;51.358;12.412;2022-08-03T13:23:30;37.20;48.00
34891;DHT22;21103;51.358;12.412;2022-08-03T13:25:56;37.30;47.30
34891;DHT22;21103;51.358;12.412;2022-08-03T13:28:21;37.30;45.50
34891;DHT22;21103;51.358;12.412;2022-08-03T13:30:47;37.30;45.30
34891;DHT22;21103;51.358;12.412;2022-08-03T13:33:12;37.20;44.50
34891;DHT22;21103;51.358;12.412;2022-08-03T13:35:38;37.20;44.30
34891;DHT22;21103;51.358;12.412;2022-08-03T13:38:03;37.10;44.00
34891;DHT22;21103;51.358;12.412;2022-08-03T13:40:29;36.70;46.30
34891;DHT22;21103;51.358;12.412;2022-08-03T13:42:56;36.70;45.80
34891;DHT22;21103;51.358;12.412;2022-08-03T13:45:22;36.70;43.00
34891;DHT22;21103;51.358;12.412;2022-08-03T13:47:48;36.70;43.20
34891;DHT22;21103;51.358;12.412;2022-08-03T13:50:14;36.70;42.50
34891;DHT22;21103;51.358;12.412;2022-08-03T13:52:39;36.70;42.60
34891;DHT22;21103;51.358;12.412;2022-08-03T13:55:06;36.80;43.10
34891;DHT22;21103;51.358;12.412;2022-08-03T13:57:33;37.00;43.40
34891;DHT22;21103;51.358;12.412;2022-08-03T13:59:59;37.20;44.10
34891;DHT22;21103;51.358;12.412;2022-08-03T14:02:25;37.40;44.30
34891;DHT22;21103;51.358;12.412;2022-08-03T14:04:50;37.60;43.10
34891;DHT22;21103;51.358;12.412;2022-08-03T14:07:16;37.60;42.20
34891;DHT22;21103;51.358;12.412;2022-08-03T14:09:41;37.60;43.20
34891;DHT22;21103;51.358;12.412;2022-08-03T14:12:07;37.50;43.80
34891;DHT22;21103;51.358;12.412;2022-08-03T14:14:32;37.50;43.70
34891;DHT22;21103;51.358;12.412;2022-08-03T14:16:58;37.40;42.80
34891;DHT22;21103;51.358;12.412;2022-08-03T14:19:23;37.40;44.30
34891;DHT22;21103;51.358;12.412;2022-08-03T14:21:48;37.40;42.40
34891;DHT22;21103;51.358;12.412;2022-08-03T14:24:14;37.30;43.90
34891;DHT22;21103;51.358;12.412;2022-08-03T14:26:41;37.10;42.10
34891;DHT22;21103;51.358;12.412;2022-08-03T14:29:07;36.90;42.00
34891;DHT22;21103;51.358;12.412;2022-08-03T14:31:32;36.70;44.00
34891;DHT22;21103;51.358;12.412;2022-08-03T14:33:58;36.80;42.50
34891;DHT22;21103;51.358;12.412;2022-08-03T14:36:24;36.70;42.20
34891;DHT22;21103;51.358;12.412;2022-08-03T14:38:49;36.80;42.10
34891;DHT22;21103;51.358;12.412;2022-08-03T14:41:15;36.80;42.10
34891;DHT22;21103;51.358;12.412;2022-08-03T14:43:40;36.90;43.20
34891;DHT22;21103;51.358;12.412;2022-08-03T14:46:06;37.00;43.80
34891;DHT22;21103;51.358;12.412;2022-08-03T14:48:31;37.10;44.30
34891;DHT22;21103;51.358;12.412;2022-08-03T14:50:57;37.10;42.50
34891;DHT22;21103;51.358;12.412;2022-08-03T14:53:23;37.10;41.80
34891;DHT22;21103;51.358;12.412;2022-08-03T14:55:49;36.90;42.10
34891;DHT22;21103;51.358;12.412;2022-08-03T14:58:15;36.80;43.20
34891;DHT22;21103;51.358;12.412;2022-08-03T15:00:40;36.90;42.60
34891;DHT22;21103;51.358;12.412;2022-08-03T15:03:08;36.90;42.30
34891;DHT22;21103;51.358;12.412;2022-08-03T15:05:33;37.00;43.00
34891;DHT22;21103;51.358;12.412;2022-08-03T15:07:59;37.00;42.20
34891;DHT22;21103;51.358;12.412;2022-08-03T15:10:24;37.00;43.20
34891;DHT22;21103;51.358;12.412;2022-08-03T15:12:50;37.00;42.30
34891;DHT22;21103;51.358;12.412;2022-08-03T15:15:16;36.80;42.50
34891;DHT22;21103;51.358;12.412;2022-08-03T15:17:41;36.70;42.40
34891;DHT22;21103;51.358;12.412;2022-08-03T15:20:07;36.60;43.00
34891;DHT22;21103;51.358;12.412;2022-08-03T15:22:33;36.50;44.00
34891;DHT22;21103;51.358;12.412;2022-08-03T15:25:00;36.40;43.10
34891;DHT22;21103;51.358;12.412;2022-08-03T15:27:27;36.30;42.00
34891;DHT22;21103;51.358;12.412;2022-08-03T15:29:52;36.10;42.20
34891;DHT22;21103;51.358;12.412;2022-08-03T15:32:17;36.00;43.00
34891;DHT22;21103;51.358;12.412;2022-08-03T15:34:43;35.80;43.60
34891;DHT22;21103;51.358;12.412;2022-08-03T15:37:08;35.70;43.80
34891;DHT22;21103;51.358;12.412;2022-08-03T15:39:34;35.40;43.20
34891;DHT22;21103;51.358;12.412;2022-08-03T15:41:59;35.10;43.60